sensor_id;sensor_type;location;lat;lon;timestamp;temperature;humidity
83142;DHT22;75194;51.180;5.972;2024-01-25T00:02:04;8.80;76.10
83142;DHT22;75194;51.180;5.972;2024-01-25T00:04:30;8.80;76.20
83142;DHT22;75194;51.180;5.972;2024-01-25T00:06:55;8.70;76.30
83142;DHT22;75194;51.180;5.972;2024-01-25T00:09:21;8.80;76.30
83142;DHT22;75194;51.180;5.972;2024-01-25T00:11:47;8.80;76.20
83142;DHT22;75194;51.180;5.972;2024-01-25T00:14:12;8.80;76.30
83142;DHT22;75194;51.180;5.972;2024-01-25T00:16:41;8.80;76.50
83142;DHT22;75194;51.180;5.972;2024-01-25T00:19:07;8.70;76.60
83142;DHT22;75194;51.180;5.972;2024-01-25T00:21:33;8.70;76.60
83142;DHT22;75194;51.180;5.972;2024-01-25T00:23:59;8.70;76.60
83142;DHT22;75194;51.180;5.972;2024-01-25T00:26:24;8.70;76.70
83142;DHT22;75194;51.180;5.972;2024-01-25T00:28:50;8.70;76.80
83142;DHT22;75194;51.180;5.972;2024-01-25T00:31:15;8.80;76.60
83142;DHT22;75194;51.180;5.972;2024-01-25T00:33:41;8.70;76.90
83142;DHT22;75194;51.180;5.972;2024-01-25T00:36:07;8.70;77.10
83142;DHT22;75194;51.180;5.972;2024-01-25T00:38:33;8.70;77.10
83142;DHT22;75194;51.180;5.972;2024-01-25T00:40:59;8.70;77.10
83142;DHT22;75194;51.180;5.972;2024-01-25T00:43:26;8.60;77.40
83142;DHT22;75194;51.180;5.972;2024-01-25T00:45:52;8.60;77.50
83142;DHT22;75194;51.180;5.972;2024-01-25T00:48:18;8.60;77.70
83142;DHT22;75194;51.180;5.972;2024-01-25T00:50:44;8.50;77.80
83142;DHT22;75194;51.180;5.972;2024-01-25T00:53:10;8.60;77.70
83142;DHT22;75194;51.180;5.972;2024-01-25T00:55:35;8.50;77.90
83142;DHT22;75194;51.180;5.972;2024-01-25T00:58:01;8.50;78.00
83142;DHT22;75194;51.180;5.972;2024-01-25T01:00:27;8.50;77.90
83142;DHT22;75194;51.180;5.972;2024-01-25T01:02:53;8.50;78.00
83142;DHT22;75194;51.180;5.972;2024-01-25T01:05:20;8.50;78.20
83142;DHT22;75194;51.180;5.972;2024-01-25T01:07:46;8.50;78.10
83142;DHT22;75194;51.180;5.972;2024-01-25T01:10:12;8.40;78.00
83142;DHT22;75194;51.180;5.972;2024-01-25T01:12:39;8.40;78.20
83142;DHT22;75194;51.180;5.972;2024-01-25T01:15:05;8.40;78.20
83142;DHT22;75194;51.180;5.972;2024-01-25T01:17:31;8.30;78.70
83142;DHT22;75194;51.180;5.972;2024-01-25T01:19:56;8.30;78.60
83142;DHT22;75194;51.180;5.972;2024-01-25T01:22:22;8.30;78.80
83142;DHT22;75194;51.180;5.972;2024-01-25T01:24:47;8.30;78.80
83142;DHT22;75194;51.180;5.972;2024-01-25T01:27:13;8.20;79.10
83142;DHT22;75194;51.180;5.972;2024-01-25T01:29:39;8.20;79.20
83142;DHT22;75194;51.180;5.972;2024-01-25T01:32:05;8.20;79.40
83142;DHT22;75194;51.180;5.972;2024-01-25T01:34:31;8.20;79.30
83142;DHT22;75194;51.180;5.972;2024-01-25T01:36:56;8.10;79.50
83142;DHT22;75194;51.180;5.972;2024-01-25T01:39:22;8.10;79.70
83142;DHT22;75194;51.180;5.972;2024-01-25T01:41:48;8.10;79.70
83142;DHT22;75194;51.180;5.972;2024-01-25T01:44:14;8.10;79.70
83142;DHT22;75194;51.180;5.972;2024-01-25T01:46:40;8.10;79.80
83142;DHT22;75194;51.180;5.972;2024-01-25T01:49:11;8.00;79.80
83142;DHT22;75194;51.180;5.972;2024-01-25T01:51:38;8.00;80.00
83142;DHT22;75194;51.180;5.972;2024-01-25T01:54:08;7.90;80.00
83142;DHT22;75194;51.180;5.972;2024-01-25T01:56:35;7.90;80.10
83142;DHT22;75194;51.180;5.972;2024-01-25T01:59:02;7.90;80.00
83142;DHT22;75194;51.180;5.972;2024-01-25T02:01:29;7.90;80.30
83142;DHT22;75194;51.180;5.972;2024-01-25T02:03:55;7.80;80.40
83142;DHT22;75194;51.180;5.972;2024-01-25T02:06:24;7.80;80.50
83142;DHT22;75194;51.180;5.972;2024-01-25T02:08:50;7.80;80.30
83142;DHT22;75194;51.180;5.972;2024-01-25T02:11:19;7.80;80.40
83142;DHT22;75194;51.180;5.972;2024-01-25T02:13:45;7.80;80.50
83142;DHT22;75194;51.180;5.972;2024-01-25T02:16:12;7.80;80.70
83142;DHT22;75194;51.180;5.972;2024-01-25T02:18:41;7.70;80.60
83142;DHT22;75194;51.180;5.972;2024-01-25T02:21:06;7.70;80.90
83142;DHT22;75194;51.180;5.972;2024-01-25T02:23:32;7.70;80.90
83142;DHT22;75194;51.180;5.972;2024-01-25T02:25:58;7.70;80.70
83142;DHT22;75194;51.180;5.972;2024-01-25T02:28:23;7.70;80.80
83142;DHT22;75194;51.180;5.972;2024-01-25T02:30:49;7.60;81.10
83142;DHT22;75194;51.180;5.972;2024-01-25T02:33:15;7.60;81.00
83142;DHT22;75194;51.180;5.972;2024-01-25T02:35:41;7.60;81.10
83142;DHT22;75194;51.180;5.972;2024-01-25T02:38:06;7.50;81.30
83142;DHT22;75194;51.180;5.972;2024-01-25T02:40:32;7.50;81.40
83142;DHT22;75194;51.180;5.972;2024-01-25T02:42:58;7.50;81.50
83142;DHT22;75194;51.180;5.972;2024-01-25T02:45:23;7.50;81.50
83142;DHT22;75194;51.180;5.972;2024-01-25T02:47:49;7.50;81.50
83142;DHT22;75194;51.180;5.972;2024-01-25T02:50:15;7.50;81.30
83142;DHT22;75194;51.180;5.972;2024-01-25T02:52:40;7.40;81.70
83142;DHT22;75194;51.180;5.972;2024-01-25T02:55:07;7.40;81.70
83142;DHT22;75194;51.180;5.972;2024-01-25T02:57:32;7.40;81.60
83142;DHT22;75194;51.180;5.972;2024-01-25T02:59:58;7.40;81.60
83142;DHT22;75194;51.180;5.972;2024-01-25T03:02:24;7.40;81.70
83142;DHT22;75194;51.180;5.972;2024-01-25T03:04:50;7.30;81.60
83142;DHT22;75194;51.180;5.972;2024-01-25T03:07:15;7.30;81.70
83142;DHT22;75194;51.180;5.972;2024-01-25T03:09:41;7.30;81.60
83142;DHT22;75194;51.180;5.972;2024-01-25T03:12:07;7.20;81.80
83142;DHT22;75194;51.180;5.972;2024-01-25T03:14:32;7.20;81.80
83142;DHT22;75194;51.180;5.972;2024-01-25T03:16:58;7.10;82.00
83142;DHT22;75194;51.180;5.972;2024-01-25T03:19:25;7.10;81.50
83142;DHT22;75194;51.180;5.972;2024-01-25T03:21:54;7.10;82.30
83142;DHT22;75194;51.180;5.972;2024-01-25T03:24:20;7.10;82.10
83142;DHT22;75194;51.180;5.972;2024-01-25T03:26:46;7.10;82.00
83142;DHT22;75194;51.180;5.972;2024-01-25T03:29:11;7.10;82.30
83142;DHT22;75194;51.180;5.972;2024-01-25T03:31:37;7.00;82.00
83142;DHT22;75194;51.180;5.972;2024-01-25T03:34:04;7.00;82.10
83142;DHT22;75194;51.180;5.972;2024-01-25T03:36:30;7.00;82.30
83142;DHT22;75194;51.180;5.972;2024-01-25T03:38:57;6.90;82.30
83142;DHT22;75194;51.180;5.972;2024-01-25T03:41:22;7.00;82.20
83142;DHT22;75194;51.180;5.972;2024-01-25T03:43:49;6.90;82.40
83142;DHT22;75194;51.180;5.972;2024-01-25T03:46:15;6.90;82.10
83142;DHT22;75194;51.180;5.972;2024-01-25T03:48:41;6.90;81.80
83142;DHT22;75194;51.180;5.972;2024-01-25T03:51:06;6.80;82.30
83142;DHT22;75194;51.180;5.972;2024-01-25T03:53:32;6.70;82.30
83142;DHT22;75194;51.180;5.972;2024-01-25T03:55:58;6.80;82.60
83142;DHT22;75194;51.180;5.972;2024-01-25T03:58:24;6.80;82.30
83142;DHT22;75194;51.180;5.972;2024-01-25T04:00:49;6.80;82.00
83142;DHT22;75194;51.180;5.972;2024-01-25T04:03:15;6.70;82.40
83142;DHT22;75194;51.180;5.972;2024-01-25T04:05:40;6.70;82.40
83142;DHT22;75194;51.180;5.972;2024-01-25T04:08:06;6.60;82.60
83142;DHT22;75194;51.180;5.972;2024-01-25T04:10:32;6.70;82.30
83142;DHT22;75194;51.180;5.972;2024-01-25T04:12:58;6.60;82.40
83142;DHT22;75194;51.180;5.972;2024-01-25T04:15:26;6.60;82.50
83142;DHT22;75194;51.180;5.972;2024-01-25T04:17:51;6.60;82.60
83142;DHT22;75194;51.180;5.972;2024-01-25T04:20:18;6.60;82.50
83142;DHT22;75194;51.180;5.972;2024-01-25T04:22:44;6.60;82.20
83142;DHT22;75194;51.180;5.972;2024-01-25T04:25:10;6.60;82.40
83142;DHT22;75194;51.180;5.972;2024-01-25T04:27:37;6.70;82.20
83142;DHT22;75194;51.180;5.972;2024-01-25T04:30:04;6.70;82.20
83142;DHT22;75194;51.180;5.972;2024-01-25T04:32:30;6.70;82.00
83142;DHT22;75194;51.180;5.972;2024-01-25T04:34:56;6.70;81.60
83142;DHT22;75194;51.180;5.972;2024-01-25T04:37:21;6.60;81.60
83142;DHT22;75194;51.180;5.972;2024-01-25T04:39:48;6.60;81.90
83142;DHT22;75194;51.180;5.972;2024-01-25T04:42:13;6.50;81.90
83142;DHT22;75194;51.180;5.972;2024-01-25T04:44:39;6.50;82.00
83142;DHT22;75194;51.180;5.972;2024-01-25T04:47:05;6.40;82.20
83142;DHT22;75194;51.180;5.972;2024-01-25T04:49:30;6.40;81.90
83142;DHT22;75194;51.180;5.972;2024-01-25T04:51:56;6.30;82.20
83142;DHT22;75194;51.180;5.972;2024-01-25T04:54:22;6.30;82.60
83142;DHT22;75194;51.180;5.972;2024-01-25T04:56:47;6.20;82.90
83142;DHT22;75194;51.180;5.972;2024-01-25T04:59:13;6.20;83.10
83142;DHT22;75194;51.180;5.972;2024-01-25T05:01:39;6.20;83.60
83142;DHT22;75194;51.180;5.972;2024-01-25T05:04:04;6.30;83.60
83142;DHT22;75194;51.180;5.972;2024-01-25T05:06:30;6.30;83.40
83142;DHT22;75194;51.180;5.972;2024-01-25T05:08:56;6.30;83.10
83142;DHT22;75194;51.180;5.972;2024-01-25T05:11:22;6.30;83.40
83142;DHT22;75194;51.180;5.972;2024-01-25T05:13:47;6.30;83.40
83142;DHT22;75194;51.180;5.972;2024-01-25T05:16:13;6.20;83.90
83142;DHT22;75194;51.180;5.972;2024-01-25T05:18:38;6.20;83.80
83142;DHT22;75194;51.180;5.972;2024-01-25T05:21:04;6.30;83.70
83142;DHT22;75194;51.180;5.972;2024-01-25T05:23:30;6.30;83.30
83142;DHT22;75194;51.180;5.972;2024-01-25T05:25:56;6.20;83.90
83142;DHT22;75194;51.180;5.972;2024-01-25T05:28:21;6.20;83.70
83142;DHT22;75194;51.180;5.972;2024-01-25T05:30:47;6.20;83.90
83142;DHT22;75194;51.180;5.972;2024-01-25T05:33:12;6.20;83.80
83142;DHT22;75194;51.180;5.972;2024-01-25T05:35:38;6.10;83.60
83142;DHT22;75194;51.180;5.972;2024-01-25T05:38:04;6.00;83.70
83142;DHT22;75194;51.180;5.972;2024-01-25T05:40:29;5.90;84.30
83142;DHT22;75194;51.180;5.972;2024-01-25T05:42:55;5.80;84.40
83142;DHT22;75194;51.180;5.972;2024-01-25T05:45:20;5.70;83.00
83142;DHT22;75194;51.180;5.972;2024-01-25T05:47:47;5.60;82.60
83142;DHT22;75194;51.180;5.972;2024-01-25T05:50:13;5.50;82.70
83142;DHT22;75194;51.180;5.972;2024-01-25T05:52:38;5.40;82.90
83142;DHT22;75194;51.180;5.972;2024-01-25T05:55:07;5.30;82.50
83142;DHT22;75194;51.180;5.972;2024-01-25T05:57:35;5.30;83.40
83142;DHT22;75194;51.180;5.972;2024-01-25T06:00:01;5.30;84.90
83142;DHT22;75194;51.180;5.972;2024-01-25T06:02:27;5.40;84.80
83142;DHT22;75194;51.180;5.972;2024-01-25T06:04:52;5.40;84.60
83142;DHT22;75194;51.180;5.972;2024-01-25T06:07:18;5.40;84.90
83142;DHT22;75194;51.180;5.972;2024-01-25T06:09:43;5.40;85.00
83142;DHT22;75194;51.180;5.972;2024-01-25T06:12:09;5.40;85.80
83142;DHT22;75194;51.180;5.972;2024-01-25T06:14:35;5.50;85.10
83142;DHT22;75194;51.180;5.972;2024-01-25T06:17:00;5.50;84.90
83142;DHT22;75194;51.180;5.972;2024-01-25T06:19:26;5.50;84.30
83142;DHT22;75194;51.180;5.972;2024-01-25T06:21:51;5.50;85.20
83142;DHT22;75194;51.180;5.972;2024-01-25T06:24:17;5.50;85.50
83142;DHT22;75194;51.180;5.972;2024-01-25T06:26:43;5.50;84.80
83142;DHT22;75194;51.180;5.972;2024-01-25T06:29:08;5.50;84.30
83142;DHT22;75194;51.180;5.972;2024-01-25T06:31:41;5.40;84.90
83142;DHT22;75194;51.180;5.972;2024-01-25T06:34:07;5.40;85.10
83142;DHT22;75194;51.180;5.972;2024-01-25T06:36:33;5.40;84.50
83142;DHT22;75194;51.180;5.972;2024-01-25T06:38:58;5.30;84.80
83142;DHT22;75194;51.180;5.972;2024-01-25T06:41:24;5.20;84.10
83142;DHT22;75194;51.180;5.972;2024-01-25T06:43:50;5.20;84.30
83142;DHT22;75194;51.180;5.972;2024-01-25T06:46:16;5.20;84.20
83142;DHT22;75194;51.180;5.972;2024-01-25T06:48:41;5.20;84.90
83142;DHT22;75194;51.180;5.972;2024-01-25T06:51:07;5.20;84.80
83142;DHT22;75194;51.180;5.972;2024-01-25T06:53:32;5.20;85.60
83142;DHT22;75194;51.180;5.972;2024-01-25T06:55:58;5.30;85.00
83142;DHT22;75194;51.180;5.972;2024-01-25T06:58:24;5.20;85.20
83142;DHT22;75194;51.180;5.972;2024-01-25T07:00:49;5.30;85.40
83142;DHT22;75194;51.180;5.972;2024-01-25T07:03:15;5.20;85.80
83142;DHT22;75194;51.180;5.972;2024-01-25T07:05:41;5.30;85.60
83142;DHT22;75194;51.180;5.972;2024-01-25T07:08:07;5.30;85.20
83142;DHT22;75194;51.180;5.972;2024-01-25T07:10:38;5.20;84.50
83142;DHT22;75194;51.180;5.972;2024-01-25T07:13:03;5.10;84.30
83142;DHT22;75194;51.180;5.972;2024-01-25T07:15:29;5.00;85.70
83142;DHT22;75194;51.180;5.972;2024-01-25T07:17:55;5.10;86.30
83142;DHT22;75194;51.180;5.972;2024-01-25T07:20:20;5.10;85.40
83142;DHT22;75194;51.180;5.972;2024-01-25T07:22:46;5.10;85.50
83142;DHT22;75194;51.180;5.972;2024-01-25T07:25:11;5.00;86.10
83142;DHT22;75194;51.180;5.972;2024-01-25T07:27:37;5.10;86.10
83142;DHT22;75194;51.180;5.972;2024-01-25T07:30:03;5.10;86.30
83142;DHT22;75194;51.180;5.972;2024-01-25T07:32:29;5.00;86.00
83142;DHT22;75194;51.180;5.972;2024-01-25T07:34:54;5.10;86.20
83142;DHT22;75194;51.180;5.972;2024-01-25T07:37:20;5.10;83.90
83142;DHT22;75194;51.180;5.972;2024-01-25T07:39:45;5.00;84.10
83142;DHT22;75194;51.180;5.972;2024-01-25T07:42:11;5.00;84.70
83142;DHT22;75194;51.180;5.972;2024-01-25T07:44:38;5.00;85.50
83142;DHT22;75194;51.180;5.972;2024-01-25T07:47:03;5.10;84.40
83142;DHT22;75194;51.180;5.972;2024-01-25T07:49:29;5.10;84.70
83142;DHT22;75194;51.180;5.972;2024-01-25T07:51:55;5.10;84.70
83142;DHT22;75194;51.180;5.972;2024-01-25T07:54:24;5.20;84.90
83142;DHT22;75194;51.180;5.972;2024-01-25T07:56:49;5.20;85.10
83142;DHT22;75194;51.180;5.972;2024-01-25T07:59:15;5.40;84.60
83142;DHT22;75194;51.180;5.972;2024-01-25T08:01:41;5.40;85.00
83142;DHT22;75194;51.180;5.972;2024-01-25T08:04:07;5.50;84.20
83142;DHT22;75194;51.180;5.972;2024-01-25T08:06:33;5.70;83.60
83142;DHT22;75194;51.180;5.972;2024-01-25T08:08:58;5.80;83.80
83142;DHT22;75194;51.180;5.972;2024-01-25T08:11:25;6.20;82.80
83142;DHT22;75194;51.180;5.972;2024-01-25T08:13:50;6.50;81.30
83142;DHT22;75194;51.180;5.972;2024-01-25T08:16:16;6.60;80.50
83142;DHT22;75194;51.180;5.972;2024-01-25T08:18:47;6.60;80.40
83142;DHT22;75194;51.180;5.972;2024-01-25T08:21:13;6.30;81.40
83142;DHT22;75194;51.180;5.972;2024-01-25T08:23:39;6.10;82.50
83142;DHT22;75194;51.180;5.972;2024-01-25T08:26:05;6.00;83.10
83142;DHT22;75194;51.180;5.972;2024-01-25T08:28:31;6.00;83.50
83142;DHT22;75194;51.180;5.972;2024-01-25T08:30:58;6.00;83.40
83142;DHT22;75194;51.180;5.972;2024-01-25T08:33:24;6.10;83.50
83142;DHT22;75194;51.180;5.972;2024-01-25T08:35:50;6.30;82.70
83142;DHT22;75194;51.180;5.972;2024-01-25T08:38:16;6.10;83.10
83142;DHT22;75194;51.180;5.972;2024-01-25T08:40:42;6.10;83.20
83142;DHT22;75194;51.180;5.972;2024-01-25T08:43:07;6.20;83.80
83142;DHT22;75194;51.180;5.972;2024-01-25T08:45:33;6.20;83.60
83142;DHT22;75194;51.180;5.972;2024-01-25T08:47:59;6.50;83.20
83142;DHT22;75194;51.180;5.972;2024-01-25T08:50:25;6.70;81.90
83142;DHT22;75194;51.180;5.972;2024-01-25T08:52:51;6.70;81.80
83142;DHT22;75194;51.180;5.972;2024-01-25T08:55:16;6.80;82.00
83142;DHT22;75194;51.180;5.972;2024-01-25T08:57:42;6.80;81.40
83142;DHT22;75194;51.180;5.972;2024-01-25T09:00:08;6.80;81.70
83142;DHT22;75194;51.180;5.972;2024-01-25T09:02:36;6.70;82.10
83142;DHT22;75194;51.180;5.972;2024-01-25T09:05:02;6.70;82.20
83142;DHT22;75194;51.180;5.972;2024-01-25T09:07:29;6.70;82.70
83142;DHT22;75194;51.180;5.972;2024-01-25T09:09:54;6.90;81.80
83142;DHT22;75194;51.180;5.972;2024-01-25T09:12:20;6.90;82.00
83142;DHT22;75194;51.180;5.972;2024-01-25T09:14:46;7.00;81.00
83142;DHT22;75194;51.180;5.972;2024-01-25T09:17:11;7.10;81.00
83142;DHT22;75194;51.180;5.972;2024-01-25T09:19:39;6.80;82.20
83142;DHT22;75194;51.180;5.972;2024-01-25T09:22:06;6.90;82.10
83142;DHT22;75194;51.180;5.972;2024-01-25T09:24:33;6.80;82.10
83142;DHT22;75194;51.180;5.972;2024-01-25T09:27:02;6.90;82.10
83142;DHT22;75194;51.180;5.972;2024-01-25T09:29:28;7.00;81.50
83142;DHT22;75194;51.180;5.972;2024-01-25T09:31:54;7.00;82.20
83142;DHT22;75194;51.180;5.972;2024-01-25T09:34:20;7.10;81.70
83142;DHT22;75194;51.180;5.972;2024-01-25T09:36:46;7.10;82.30
83142;DHT22;75194;51.180;5.972;2024-01-25T09:39:12;7.60;80.70
83142;DHT22;75194;51.180;5.972;2024-01-25T09:41:39;8.30;77.30
83142;DHT22;75194;51.180;5.972;2024-01-25T09:44:08;8.90;75.90
83142;DHT22;75194;51.180;5.972;2024-01-25T09:46:34;9.20;74.40
83142;DHT22;75194;51.180;5.972;2024-01-25T09:49:01;9.70;72.80
83142;DHT22;75194;51.180;5.972;2024-01-25T09:51:32;10.10;70.70
83142;DHT22;75194;51.180;5.972;2024-01-25T09:54:00;9.80;72.00
83142;DHT22;75194;51.180;5.972;2024-01-25T09:56:27;9.80;72.20
83142;DHT22;75194;51.180;5.972;2024-01-25T09:58:55;9.90;71.30
83142;DHT22;75194;51.180;5.972;2024-01-25T10:01:21;9.60;71.90
83142;DHT22;75194;51.180;5.972;2024-01-25T10:03:47;9.80;72.20
83142;DHT22;75194;51.180;5.972;2024-01-25T10:06:14;8.90;74.70
83142;DHT22;75194;51.180;5.972;2024-01-25T10:08:41;8.50;76.40
83142;DHT22;75194;51.180;5.972;2024-01-25T10:11:07;8.30;77.00
83142;DHT22;75194;51.180;5.972;2024-01-25T10:13:47;8.10;77.90
83142;DHT22;75194;51.180;5.972;2024-01-25T10:16:17;8.40;77.20
83142;DHT22;75194;51.180;5.972;2024-01-25T10:18:44;8.40;77.60
83142;DHT22;75194;51.180;5.972;2024-01-25T10:21:11;8.60;76.50
83142;DHT22;75194;51.180;5.972;2024-01-25T10:23:37;8.40;77.00
83142;DHT22;75194;51.180;5.972;2024-01-25T10:26:03;8.30;77.20
83142;DHT22;75194;51.180;5.972;2024-01-25T10:28:29;8.20;77.50
83142;DHT22;75194;51.180;5.972;2024-01-25T10:31:00;7.90;79.00
83142;DHT22;75194;51.180;5.972;2024-01-25T10:33:27;7.70;80.00
83142;DHT22;75194;51.180;5.972;2024-01-25T10:35:59;7.80;80.10
83142;DHT22;75194;51.180;5.972;2024-01-25T10:38:35;7.80;79.70
83142;DHT22;75194;51.180;5.972;2024-01-25T10:41:02;7.80;80.10
83142;DHT22;75194;51.180;5.972;2024-01-25T10:43:29;7.60;80.30
83142;DHT22;75194;51.180;5.972;2024-01-25T10:45:58;7.30;81.00
83142;DHT22;75194;51.180;5.972;2024-01-25T10:48:27;7.20;81.80
83142;DHT22;75194;51.180;5.972;2024-01-25T10:50:56;7.20;82.00
83142;DHT22;75194;51.180;5.972;2024-01-25T10:53:24;7.40;82.30
83142;DHT22;75194;51.180;5.972;2024-01-25T10:55:52;7.40;81.50
83142;DHT22;75194;51.180;5.972;2024-01-25T10:58:18;7.30;81.50
83142;DHT22;75194;51.180;5.972;2024-01-25T11:00:56;7.20;82.10
83142;DHT22;75194;51.180;5.972;2024-01-25T11:03:30;7.10;82.40
83142;DHT22;75194;51.180;5.972;2024-01-25T11:06:09;7.10;83.00
83142;DHT22;75194;51.180;5.972;2024-01-25T11:08:35;7.00;83.50
83142;DHT22;75194;51.180;5.972;2024-01-25T11:11:10;7.20;83.40
83142;DHT22;75194;51.180;5.972;2024-01-25T11:13:39;7.30;82.60
83142;DHT22;75194;51.180;5.972;2024-01-25T11:16:29;7.30;82.10
83142;DHT22;75194;51.180;5.972;2024-01-25T11:18:56;7.20;83.00
83142;DHT22;75194;51.180;5.972;2024-01-25T11:24:36;7.30;83.00
83142;DHT22;75194;51.180;5.972;2024-01-25T11:27:03;7.40;82.60
83142;DHT22;75194;51.180;5.972;2024-01-25T11:29:30;7.40;82.50
83142;DHT22;75194;51.180;5.972;2024-01-25T11:31:56;7.50;82.40
83142;DHT22;75194;51.180;5.972;2024-01-25T11:34:22;7.50;82.00
83142;DHT22;75194;51.180;5.972;2024-01-25T11:36:49;7.60;82.20
83142;DHT22;75194;51.180;5.972;2024-01-25T11:39:16;7.80;81.70
83142;DHT22;75194;51.180;5.972;2024-01-25T11:41:43;7.90;80.80
83142;DHT22;75194;51.180;5.972;2024-01-25T11:44:18;8.00;80.90
83142;DHT22;75194;51.180;5.972;2024-01-25T11:46:43;8.10;79.40
83142;DHT22;75194;51.180;5.972;2024-01-25T11:49:09;8.20;79.90
83142;DHT22;75194;51.180;5.972;2024-01-25T11:51:35;8.40;79.40
83142;DHT22;75194;51.180;5.972;2024-01-25T11:54:01;8.50;78.30
83142;DHT22;75194;51.180;5.972;2024-01-25T11:56:33;8.50;78.60
83142;DHT22;75194;51.180;5.972;2024-01-25T11:59:00;8.40;78.40
83142;DHT22;75194;51.180;5.972;2024-01-25T12:01:26;8.40;78.70
83142;DHT22;75194;51.180;5.972;2024-01-25T12:03:53;8.30;78.50
83142;DHT22;75194;51.180;5.972;2024-01-25T12:06:19;8.50;77.90
83142;DHT22;75194;51.180;5.972;2024-01-25T12:08:45;8.50;78.10
83142;DHT22;75194;51.180;5.972;2024-01-25T12:11:13;8.60;77.70
83142;DHT22;75194;51.180;5.972;2024-01-25T12:13:41;8.60;77.60
83142;DHT22;75194;51.180;5.972;2024-01-25T12:16:08;8.80;76.80
83142;DHT22;75194;51.180;5.972;2024-01-25T12:18:34;8.80;76.90
83142;DHT22;75194;51.180;5.972;2024-01-25T12:21:04;8.90;76.30
83142;DHT22;75194;51.180;5.972;2024-01-25T12:23:40;8.90;76.30
83142;DHT22;75194;51.180;5.972;2024-01-25T12:26:10;9.10;76.60
83142;DHT22;75194;51.180;5.972;2024-01-25T12:28:36;9.10;75.90
83142;DHT22;75194;51.180;5.972;2024-01-25T12:31:04;9.10;75.80
83142;DHT22;75194;51.180;5.972;2024-01-25T12:33:30;9.00;76.50
83142;DHT22;75194;51.180;5.972;2024-01-25T12:35:56;9.10;76.00
83142;DHT22;75194;51.180;5.972;2024-01-25T12:38:24;9.10;76.10
83142;DHT22;75194;51.180;5.972;2024-01-25T12:40:50;9.20;74.90
83142;DHT22;75194;51.180;5.972;2024-01-25T12:43:17;9.20;75.30
83142;DHT22;75194;51.180;5.972;2024-01-25T12:45:43;9.40;74.70
83142;DHT22;75194;51.180;5.972;2024-01-25T12:48:09;9.40;74.40
83142;DHT22;75194;51.180;5.972;2024-01-25T12:50:36;9.20;74.90
83142;DHT22;75194;51.180;5.972;2024-01-25T12:53:02;9.30;75.20
83142;DHT22;75194;51.180;5.972;2024-01-25T12:55:30;9.30;74.70
83142;DHT22;75194;51.180;5.972;2024-01-25T12:57:57;9.40;74.10
83142;DHT22;75194;51.180;5.972;2024-01-25T13:00:23;9.30;74.50
83142;DHT22;75194;51.180;5.972;2024-01-25T13:02:50;9.30;74.30
83142;DHT22;75194;51.180;5.972;2024-01-25T13:05:16;9.30;74.70
83142;DHT22;75194;51.180;5.972;2024-01-25T13:07:42;9.40;74.60
83142;DHT22;75194;51.180;5.972;2024-01-25T13:10:11;9.40;74.20
83142;DHT22;75194;51.180;5.972;2024-01-25T13:12:39;9.50;74.50
83142;DHT22;75194;51.180;5.972;2024-01-25T13:15:05;9.40;74.90
83142;DHT22;75194;51.180;5.972;2024-01-25T13:17:31;9.50;74.50
83142;DHT22;75194;51.180;5.972;2024-01-25T13:20:00;9.40;73.90
83142;DHT22;75194;51.180;5.972;2024-01-25T13:22:25;9.40;74.50
83142;DHT22;75194;51.180;5.972;2024-01-25T13:24:51;9.40;74.40
83142;DHT22;75194;51.180;5.972;2024-01-25T13:27:17;9.50;74.30
83142;DHT22;75194;51.180;5.972;2024-01-25T13:29:43;9.40;74.10
83142;DHT22;75194;51.180;5.972;2024-01-25T13:32:08;9.50;74.20
83142;DHT22;75194;51.180;5.972;2024-01-25T13:34:35;9.50;74.20
83142;DHT22;75194;51.180;5.972;2024-01-25T13:37:00;9.50;74.20
83142;DHT22;75194;51.180;5.972;2024-01-25T13:39:26;9.50;74.30
83142;DHT22;75194;51.180;5.972;2024-01-25T13:41:52;9.40;74.40
83142;DHT22;75194;51.180;5.972;2024-01-25T13:44:17;9.40;74.70
83142;DHT22;75194;51.180;5.972;2024-01-25T13:46:43;9.40;74.80
83142;DHT22;75194;51.180;5.972;2024-01-25T13:49:09;9.40;74.90
83142;DHT22;75194;51.180;5.972;2024-01-25T13:51:34;9.50;75.00
83142;DHT22;75194;51.180;5.972;2024-01-25T13:54:01;9.50;74.30
83142;DHT22;75194;51.180;5.972;2024-01-25T13:56:26;9.40;74.30
83142;DHT22;75194;51.180;5.972;2024-01-25T13:58:52;9.40;74.70
83142;DHT22;75194;51.180;5.972;2024-01-25T14:01:18;9.30;74.90
83142;DHT22;75194;51.180;5.972;2024-01-25T14:03:43;9.40;74.90
83142;DHT22;75194;51.180;5.972;2024-01-25T14:06:09;9.40;75.00
83142;DHT22;75194;51.180;5.972;2024-01-25T14:08:37;9.40;74.70
83142;DHT22;75194;51.180;5.972;2024-01-25T14:11:04;9.40;74.70
83142;DHT22;75194;51.180;5.972;2024-01-25T14:13:31;9.40;75.00
83142;DHT22;75194;51.180;5.972;2024-01-25T14:15:57;9.40;74.70
83142;DHT22;75194;51.180;5.972;2024-01-25T14:18:24;9.40;74.70
83142;DHT22;75194;51.180;5.972;2024-01-25T14:20:50;9.40;74.40
83142;DHT22;75194;51.180;5.972;2024-01-25T14:23:15;9.40;74.40
83142;DHT22;75194;51.180;5.972;2024-01-25T14:25:41;9.30;74.80
83142;DHT22;75194;51.180;5.972;2024-01-25T14:28:07;9.30;75.20
83142;DHT22;75194;51.180;5.972;2024-01-25T14:30:32;9.40;74.70
83142;DHT22;75194;51.180;5.972;2024-01-25T14:32:58;9.40;74.90
83142;DHT22;75194;51.180;5.972;2024-01-25T14:35:24;9.40;74.80
83142;DHT22;75194;51.180;5.972;2024-01-25T14:37:54;9.40;74.60
83142;DHT22;75194;51.180;5.972;2024-01-25T14:40:20;9.40;74.80
83142;DHT22;75194;51.180;5.972;2024-01-25T14:42:46;9.40;74.50
83142;DHT22;75194;51.180;5.972;2024-01-25T14:45:12;9.40;74.70
83142;DHT22;75194;51.180;5.972;2024-01-25T14:47:37;9.40;74.60
83142;DHT22;75194;51.180;5.972;2024-01-25T14:50:03;9.40;75.00
83142;DHT22;75194;51.180;5.972;2024-01-25T14:52:29;9.40;74.80
83142;DHT22;75194;51.180;5.972;2024-01-25T14:55:02;9.40;75.00
83142;DHT22;75194;51.180;5.972;2024-01-25T14:57:27;9.40;75.50
83142;DHT22;75194;51.180;5.972;2024-01-25T14:59:53;9.30;76.20
83142;DHT22;75194;51.180;5.972;2024-01-25T15:02:19;9.30;77.10
83142;DHT22;75194;51.180;5.972;2024-01-25T15:04:44;9.20;79.00
83142;DHT22;75194;51.180;5.972;2024-01-25T15:07:10;9.00;81.10
83142;DHT22;75194;51.180;5.972;2024-01-25T15:09:35;8.80;83.00
83142;DHT22;75194;51.180;5.972;2024-01-25T15:12:01;8.70;84.30
83142;DHT22;75194;51.180;5.972;2024-01-25T15:14:27;8.70;85.10
83142;DHT22;75194;51.180;5.972;2024-01-25T15:16:53;8.60;85.70
83142;DHT22;75194;51.180;5.972;2024-01-25T15:19:18;8.60;86.20
83142;DHT22;75194;51.180;5.972;2024-01-25T15:21:45;8.50;86.50
83142;DHT22;75194;51.180;5.972;2024-01-25T15:24:11;8.50;87.00
83142;DHT22;75194;51.180;5.972;2024-01-25T15:26:40;8.50;87.40
83142;DHT22;75194;51.180;5.972;2024-01-25T15:29:06;8.50;87.70
83142;DHT22;75194;51.180;5.972;2024-01-25T15:31:32;8.50;87.80
83142;DHT22;75194;51.180;5.972;2024-01-25T15:33:58;8.50;87.90
83142;DHT22;75194;51.180;5.972;2024-01-25T15:36:23;8.50;88.30
83142;DHT22;75194;51.180;5.972;2024-01-25T15:38:49;8.50;88.20
83142;DHT22;75194;51.180;5.972;2024-01-25T15:41:15;8.40;88.70
83142;DHT22;75194;51.180;5.972;2024-01-25T15:43:47;8.40;88.60